Flight Track Log - Related Links

Times and Time Zones

All times are in EDT time to prevent confusion due to time zone crossing. See the ASQ5433 flight status page for this flight to view local times or setup timezone preferences in your user account.


Time Position Orientation Groundspeed Altitude Reporting Facility
EDT Latitude Longitude Course Direction KTS MPH feet Rate Location/Type
Sun 01:13:17 PM 32.8833 -97.0333 157° South 159 183 1,500  Level Dallas / Fort Worth TRACON
Sun 01:14:36 PM 32.8167 -97.0000 157° South 229 264 4,000 2,115 Climbing Dallas / Fort Worth TRACON
Sun 01:15:36 PM 32.7667 -96.9500 140° Southeast 254 292 6,400 2,500 Climbing Dallas / Fort Worth TRACON
Sun 01:16:36 PM 32.7667 -96.8500 90° East 288 331 9,000 1,880 Climbing Dallas / Fort Worth TRACON
Sun 01:18:22 PM 32.8272 -96.6917 65° Northeast 325 374 11,600 1,509 Climbing Fort Worth Center
Sun 01:19:23 PM 32.8725 -96.5800 64° Northeast 354 407 13,200 1,500 Climbing Fort Worth Center
Sun 01:20:22 PM 32.9175 -96.4631 65° Northeast 373 429 14,600 1,513 Climbing Fort Worth Center
Sun 01:21:22 PM 32.9667 -96.3389 65° Northeast 399 459 16,200 1,500 Climbing Fort Worth Center
Sun 01:22:22 PM 32.9883 -96.2047 79° East 409 471 17,600 1,350 Climbing Fort Worth Center
Sun 01:23:22 PM 33.0078 -96.0608 81° East 429 494 18,900 1,350 Climbing Fort Worth Center
Sun 01:24:22 PM 33.0269 -95.9194 81° East 429 494 20,300 1,500 Climbing Fort Worth Center
Sun 01:25:22 PM 33.0481 -95.7753 80° East 429 494 21,900 1,500 Climbing Fort Worth Center
Sun 01:26:22 PM 33.0669 -95.6286 81° East 434 499 23,300 1,500 Climbing Fort Worth Center
Sun 01:27:22 PM 33.0964 -95.4842 76° East 440 506 24,900 1,450 Climbing Fort Worth Center
Sun 01:28:22 PM 33.1378 -95.3419 71° East 440 506 26,200 1,150 Climbing Fort Worth Center
Sun 01:29:22 PM 33.1833 -95.1969 69° East 452 520 27,200 1,000 Climbing Fort Worth Center
Sun 01:30:22 PM 33.2286 -95.0492 70° East 457 526 28,200 1,000 Climbing Fort Worth Center
Sun 01:31:22 PM 33.2739 -94.8989 70° East 469 540 29,200 1,000 Climbing Fort Worth Center
Sun 01:32:22 PM 33.3186 -94.7436 71° East 481 554 30,200 1,000 Climbing Fort Worth Center
Sun 01:33:22 PM 33.3672 -94.5881 69° East 492 566 31,200 1,000 Climbing Fort Worth Center
Sun 01:34:22 PM 33.4136 -94.4272 71° East 497 572 32,200 1,000 Climbing Fort Worth Center
Sun 01:35:22 PM 33.4600 -94.2664 71° East 503 579 33,200 800 Climbing Fort Worth Center
Sun 01:36:22 PM 33.5100 -94.1050 70° East 508 585 33,800 545 Climbing Fort Worth Center
Sun 01:37:23 PM 33.5644 -93.9561 66° East 514 592 34,300 500 Climbing Fort Worth Center
Sun 01:38:22 PM 33.6244 -93.7939 66° East 519 597 34,800 353 Climbing Fort Worth Center
Sun 01:39:22 PM 33.6906 -93.6289 64° Northeast 525 604 35,000 128 Climbing Fort Worth Center
Sun 01:39:56 PM 33.7233 -93.5342 67° East 554 638 35,000 255 Level Memphis Center
Sun 01:40:56 PM 33.7903 -93.3639 65° Northeast 567 652 35,400 600 Climbing Memphis Center
Sun 01:41:56 PM 33.8547 -93.1961 65° Northeast 567 652 36,200 750 Climbing Memphis Center
Sun 01:42:56 PM 33.9208 -93.0306 64° Northeast 554 638 36,900 400 Climbing Memphis Center
Sun 01:43:56 PM 33.9828 -92.8597 66° East 549 632 37,000 50 Climbing Memphis Center
Sun 01:44:56 PM 34.0489 -92.6886 65° Northeast 554 638 37,000  Level Memphis Center
Sun 01:45:56 PM 34.1292 -92.5100 61° Northeast 554 638 37,000  Level Memphis Center
Sun 01:46:56 PM 34.2356 -92.3847 44° Northeast 547 629 37,000  Level Memphis Center
Sun 01:47:56 PM 34.3442 -92.2564 44° Northeast 547 629 37,000  Level Memphis Center
Sun 01:48:56 PM 34.4522 -92.1303 44° Northeast 534 615 37,000  Level Memphis Center
Sun 01:49:56 PM 34.5583 -92.0064 44° Northeast 529 609 37,000  Level Memphis Center
Sun 01:50:56 PM 34.6664 -91.8797 44° Northeast 529 609 37,000  Level Memphis Center
Sun 01:51:56 PM 34.7722 -91.7503 45° Northeast 536 617 37,000  Level Memphis Center
Sun 01:52:56 PM 34.8800 -91.6253 44° Northeast 536 617 37,000  Level Memphis Center
Sun 01:53:56 PM 34.9833 -91.4978 45° Northeast 531 611 37,000  Level Memphis Center
Sun 01:54:56 PM 35.0908 -91.3772 43° Northeast 531 611 37,000  Level Memphis Center
Sun 01:55:56 PM 35.1919 -91.2464 47° Northeast 524 603 37,000  Level Memphis Center
Sun 01:56:56 PM 35.2972 -91.1228 44° Northeast 519 597 37,000  Level Memphis Center
Sun 01:57:56 PM 35.3894 -91.0117 44° Northeast 512 589 37,000  Level Memphis Center
Sun 01:58:56 PM 35.4944 -90.8875 44° Northeast 512 589 37,000  Level Memphis Center
Sun 01:59:56 PM 35.5969 -90.7606 45° Northeast 512 589 37,000  Level Memphis Center
Sun 02:00:56 PM 35.7039 -90.6228 46° Northeast 510 587 37,000  Level Memphis Center
Sun 02:01:56 PM 35.8083 -90.4953 45° Northeast 505 581 37,000  Level Memphis Center
Sun 02:02:56 PM 35.9106 -90.3672 45° Northeast 505 581 37,000  Level Memphis Center
Sun 02:03:56 PM 36.0147 -90.2389 45° Northeast 511 588 37,000  Level Memphis Center
Sun 02:04:56 PM 36.1167 -90.1128 45° Northeast 511 588 37,000  Level Memphis Center
Sun 02:05:56 PM 36.2206 -89.9839 45° Northeast 511 588 37,000  Level Memphis Center
Sun 02:06:56 PM 36.3244 -89.8572 44° Northeast 511 588 37,000 -150 Level Memphis Center
Sun 02:07:56 PM 36.4258 -89.7278 46° Northeast 511 588 36,700 -500 Descending Memphis Center
Sun 02:08:56 PM 36.5253 -89.6003 46° Northeast 511 588 36,000 -650 Descending Memphis Center
Sun 02:09:56 PM 36.6286 -89.4728 45° Northeast 511 588 35,400 -500 Descending Memphis Center
Sun 02:10:56 PM 36.7278 -89.3447 46° Northeast 511 588 35,000 -200 Descending Memphis Center
Sun 02:11:56 PM 36.8286 -89.2139 46° Northeast 511 588 35,000  Level Memphis Center
Sun 02:12:56 PM 36.9172 -89.1011 45° Northeast 511 588 35,000  Level Memphis Center
Sun 02:13:56 PM 37.0178 -88.9694 46° Northeast 511 588 35,000  Level Memphis Center
Sun 02:14:56 PM 37.1183 -88.8428 45° Northeast 511 588 35,000  Level Memphis Center
Sun 02:15:56 PM 37.2147 -88.7186 46° Northeast 506 582 35,000 -600 Level Memphis Center
Sun 02:16:56 PM 37.3131 -88.5861 47° Northeast 506 582 33,800 -1,140 Descending Memphis Center
Sun 02:18:55 PM 37.5056 -88.3264 47° Northeast 498 573 31,600 -928 Descending Indianapolis Center
Sun 02:19:57 PM 37.6008 -88.1997 46° Northeast 504 580 31,000 -293 Descending Indianapolis Center
Sun 02:20:58 PM 37.6953 -88.0672 48° Northeast 503 579 31,000  Level Indianapolis Center
Sun 02:22:00 PM 37.7608 -87.9008 63° Northeast 525 604 31,000  Level Indianapolis Center
Sun 02:23:02 PM 37.8242 -87.7325 64° Northeast 527 606 31,000  Level Indianapolis Center
Sun 02:24:04 PM 37.8875 -87.5631 65° Northeast 531 611 31,000  Level Indianapolis Center
Sun 02:25:05 PM 37.9644 -87.3578 65° Northeast 537 618 31,000 -341 Level Indianapolis Center
Sun 02:26:07 PM 38.0289 -87.1853 65° Northeast 543 625 30,300 -1,065 Descending Indianapolis Center
Sun 02:27:09 PM 38.0922 -87.0131 65° Northeast 546 628 28,800 -1,452 Descending Indianapolis Center
Sun 02:28:11 PM 38.1533 -86.8467 65° Northeast 532 612 27,300 -1,452 Descending Indianapolis Center
Sun 02:29:13 PM 38.2133 -86.6819 65° Northeast 521 600 25,800 -1,463 Descending Indianapolis Center
Sun 02:30:14 PM 38.2739 -86.5178 65° Northeast 517 595 24,300 -1,610 Descending Indianapolis Center
Sun 02:31:16 PM 38.3447 -86.3231 65° Northeast 505 581 22,500 -1,887 Descending Indianapolis Center
Sun 02:32:18 PM 38.4008 -86.1692 65° Northeast 483 556 20,400 -2,081 Descending Indianapolis Center
Sun 02:33:20 PM 38.4539 -86.0172 66° East 470 541 18,200 -2,000 Descending Indianapolis Center
Sun 02:34:21 PM 38.5058 -85.8725 65° Northeast 452 520 16,300 -1,951 Descending Indianapolis Center
Sun 02:35:23 PM 38.5550 -85.7353 65° Northeast 428 493 14,200 -2,032 Descending Indianapolis Center
Sun 02:36:25 PM 38.6028 -85.6042 65° Northeast 410 472 12,100 -1,548 Descending Indianapolis Center
Sun 02:37:27 PM 38.6636 -85.4758 59° Northeast 392 451 11,000 -537 Descending Indianapolis Center
Sun 02:38:28 PM 38.6856 -85.3403 78° East 407 468 11,000 -146 Level Indianapolis Center
Sun 02:39:30 PM 38.6881 -85.2100 89° East 364 419 10,700 -726 Descending Indianapolis Center
Sun 02:40:32 PM 38.6908 -85.1011 88° East 312 359 9,500 -1,366 Descending Indianapolis Center
Sun 02:41:33 PM 38.6922 -84.9750 89° East 298 343 7,900 -1,512 Descending Indianapolis Center
Sun 02:42:35 PM 38.7058 -84.8789 80° East 289 333 6,400 -1,065 Descending Indianapolis Center
Sun 02:43:37 PM 38.7403 -84.8050 59° Northeast 281 323 5,700 -667 Descending Indianapolis Center
Sun 02:46:02 PM 38.8667 -84.6667 40° Northeast 210 242 4,100 -761 Descending Cincinnati TRACON
Sun 02:47:02 PM 38.9333 -84.6667 360° North 184 212 3,100 -895 Descending Cincinnati TRACON
Sun 02:47:56 PM 38.9667 -84.6667 360° North 176 203 2,400 -789 Descending Cincinnati TRACON
Sun 02:48:56 PM 39.0000 -84.6667 360° North 127 146 1,600 -800 Descending Cincinnati TRACON
Sun 02:50:00 PM 39.0333 -84.6667 38° Northeast  Level FlightAware Approximate

Login

Don't have an account? Register now (free) for customized features, flight alerts, and more!